This is the latest recevied weather packets stored in our database for station/object K0QJ. If no packets are shown the sender has not sent any weather packets the latest 1 day(s).
| Time | Temp. | Humidity | Pressure | Rain* | Wind** | Luminosity | Snow |
|---|---|---|---|---|---|---|---|
| 1778083028 | 12.78° C | 46% | 1017.8 hPa | 0 mm | - | 269 W/m² | - |
| 1778082724 | 12.78° C | 46% | 1017.7 hPa | 0 mm | - | 246 W/m² | - |
| 1778081586 | 12.78° C | 42% | 1017.6 hPa | 0 mm | - | 507 W/m² | - |
| 1778080072 | 12.22° C | 48% | 1017.4 hPa | 0 mm | - | 622 W/m² | - |
| 1778079466 | 12.22° C | 51% | 1017.6 hPa | 0 mm | - | 596 W/m² | - |
| 1778078860 | 11.67° C | 55% | 1017.6 hPa | 0 mm | - | 527 W/m² | - |
| 1778078557 | 11.67° C | 57% | 1017.6 hPa | 0 mm | - | 530 W/m² | - |
| 1778077650 | 11.11° C | 58% | 1017.9 hPa | 0 mm | - | 398 W/m² | - |
| 1778077348 | 11.11° C | 59% | 1017.7 hPa | 0 mm | - | 372 W/m² | - |
| 1778076744 | 10.56° C | 60% | 1017.6 hPa | 0 mm | - | 159 W/m² | - |
| 1778076441 | 10.56° C | 59% | 1017.5 hPa | 0 mm | - | 77 W/m² | - |
| 1778076138 | 10.56° C | 63% | 1017.5 hPa | 0 mm | - | 78 W/m² | - |
| 1778075531 | 10° C | 63% | 1017.3 hPa | 0 mm | - | 91 W/m² | - |
| 1778075228 | 10.56° C | 62% | 1017.2 hPa | 0 mm | - | 69 W/m² | - |
| 1778072500 | 8.89° C | 79% | 1016.6 hPa | 0 mm | - | 29 W/m² | - |
| 1778072198 | 8.89° C | 80% | 1016.7 hPa | 0 mm | - | 24 W/m² | - |
| 1778071291 | 8.89° C | 81% | 1016.4 hPa | 0 mm | - | 45 W/m² | - |
| 1778070988 | 8.89° C | 81% | 1016.4 hPa | 0 mm | - | 49 W/m² | - |
| 1778070687 | 8.89° C | 81% | 1016.2 hPa | 0 mm | - | 39 W/m² | - |
| 1778070383 | 8.33° C | 82% | 1016.1 hPa | 0 mm | - | 46 W/m² | - |
| 1778070081 | 8.33° C | 84% | 1016.1 hPa | 0 mm | - | 42 W/m² | - |
| 1778069173 | 7.78° C | 85% | 1015.5 hPa | 0 mm | - | 29 W/m² | - |
| 1778068870 | 7.78° C | 85% | 1015.6 hPa | 0 mm | - | 13 W/m² | - |
| 1778068266 | 7.78° C | 85% | 1015.2 hPa | 0 mm | - | 14 W/m² | - |
| 1778067963 | 7.78° C | 85% | 1015.1 hPa | 0 mm | - | 12 W/m² | - |
* Rain latest hour (hover to see other rain measurements)
** Current wind speed in m/s (hover to see current wind gust speed)